Time;durP1;ratioP1;P1;durP2;ratioP2;P2;SDS_P1;SDS_P2;PMS_P1;PMS_P2;Temp;Humidity;BMP_temperature;BMP_pressure;BME280_temperature;BME280_humidity;BME280_pressure;Samples;Min_cycle;Max_cycle;Signal;HPM_P1;HPM_P2
2021/03/03 00:01:47;;;;;;;18.00;6.83;;;3.70;99.90;;;;;;1888504;75;21140;-71
2021/03/03 00:04:13;;;;;;;15.53;7.30;;;3.70;99.90;;;;;;1888750;76;21054;-71
2021/03/03 00:06:39;;;;;;;10.78;6.75;;;3.70;99.90;;;;;;1899834;73;21084;-71
2021/03/03 00:09:05;;;;;;;15.85;7.53;;;3.80;99.90;;;;;;1923866;74;21136;-71
2021/03/03 00:11:31;;;;;;;20.60;7.78;;;3.70;99.90;;;;;;1910715;74;21152;-72
2021/03/03 00:13:57;;;;;;;12.35;6.80;;;3.60;99.90;;;;;;1893251;74;21047;-71
2021/03/03 00:16:24;;;;;;;22.40;7.87;;;3.60;99.90;;;;;;1912830;73;21147;-71
2021/03/03 00:18:50;;;;;;;12.88;7.70;;;3.60;99.90;;;;;;1888723;74;21078;-72
2021/03/03 00:21:16;;;;;;;15.23;6.67;;;3.60;99.90;;;;;;1915381;74;21484;-71
2021/03/03 00:23:42;;;;;;;13.48;6.83;;;3.50;99.90;;;;;;1906495;74;21502;-72
2021/03/03 00:26:08;;;;;;;13.88;7.58;;;3.50;99.90;;;;;;1908091;74;21467;-72
2021/03/03 00:28:34;;;;;;;15.10;6.87;;;3.40;99.90;;;;;;1890346;74;21135;-71
2021/03/03 00:31:00;;;;;;;12.55;8.03;;;3.40;99.90;;;;;;1889180;76;21187;-72
2021/03/03 00:33:26;;;;;;;13.53;7.58;;;3.40;99.90;;;;;;1907034;74;21086;-72
2021/03/03 00:35:53;;;;;;;12.93;7.20;;;3.30;99.90;;;;;;1917970;74;21151;-71
2021/03/03 00:38:19;;;;;;;13.72;7.37;;;3.30;99.90;;;;;;1891702;74;21077;-71
2021/03/03 00:40:45;;;;;;;18.62;7.58;;;3.40;99.90;;;;;;1913924;74;21043;-71
2021/03/03 00:43:11;;;;;;;12.15;7.42;;;3.30;99.90;;;;;;1908236;74;21182;-71
2021/03/03 00:45:37;;;;;;;10.43;6.62;;;3.30;99.90;;;;;;1907608;74;21205;-71
2021/03/03 00:48:03;;;;;;;17.05;8.08;;;3.40;99.90;;;;;;1898391;74;21160;-72
2021/03/03 00:50:29;;;;;;;10.20;6.90;;;3.40;99.90;;;;;;1897009;73;21536;-72
2021/03/03 00:52:55;;;;;;;16.37;6.87;;;3.40;99.90;;;;;;1893564;74;21587;-72
2021/03/03 00:55:22;;;;;;;12.78;7.33;;;3.30;99.90;;;;;;1903653;74;21077;-71
2021/03/03 00:57:48;;;;;;;12.05;7.17;;;3.30;99.90;;;;;;1923215;74;21051;-71
2021/03/03 01:00:14;;;;;;;20.88;7.75;;;3.30;99.90;;;;;;1900948;74;21073;-71
2021/03/03 01:02:40;;;;;;;13.00;7.05;;;3.30;99.90;;;;;;1897541;75;21136;-71
2021/03/03 01:05:06;;;;;;;13.83;7.30;;;3.30;99.90;;;;;;1896025;74;21060;-71
2021/03/03 01:07:32;;;;;;;15.25;7.40;;;3.30;99.90;;;;;;1899439;74;21072;-71
2021/03/03 01:09:58;;;;;;;16.15;7.70;;;3.30;99.90;;;;;;1889342;76;21075;-71
2021/03/03 01:12:24;;;;;;;26.23;7.85;;;3.10;99.90;;;;;;1897091;74;21078;-71
2021/03/03 01:14:51;;;;;;;16.10;7.75;;;3.20;99.90;;;;;;1891378;74;21506;-71
2021/03/03 01:17:17;;;;;;;14.90;7.83;;;3.10;99.90;;;;;;1889496;74;21496;-71
2021/03/03 01:19:43;;;;;;;11.90;7.28;;;3.10;99.90;;;;;;1886759;75;21482;-71
2021/03/03 01:22:09;;;;;;;17.52;7.67;;;3.10;99.90;;;;;;1877818;75;21081;-72
2021/03/03 01:24:35;;;;;;;18.12;7.65;;;3.10;99.90;;;;;;1881390;75;21073;-72
2021/03/03 01:27:01;;;;;;;16.87;7.17;;;3.10;99.90;;;;;;1882171;75;21085;-72
2021/03/03 01:29:27;;;;;;;11.83;6.97;;;3.10;99.90;;;;;;1879920;74;21049;-72
2021/03/03 01:31:53;;;;;;;13.13;7.50;;;3.10;99.90;;;;;;1867671;76;21078;-71
2021/03/03 01:34:20;;;;;;;12.90;7.35;;;3.10;99.90;;;;;;1870113;74;21073;-72
2021/03/03 01:36:46;;;;;;;21.45;7.30;;;3.10;99.90;;;;;;1876458;74;21164;-71
2021/03/03 01:39:12;;;;;;;14.00;7.87;;;3.10;99.90;;;;;;1875936;74;21073;-72
2021/03/03 01:41:38;;;;;;;13.40;7.72;;;3.10;99.90;;;;;;1879293;74;21142;-71
2021/03/03 01:44:04;;;;;;;13.88;7.95;;;3.00;99.90;;;;;;1873048;74;21055;-71
2021/03/03 01:46:30;;;;;;;12.10;6.92;;;3.00;99.90;;;;;;1875190;74;21073;-72
2021/03/03 01:48:56;;;;;;;11.93;7.28;;;3.00;99.90;;;;;;1870257;75;21089;-72
2021/03/03 01:51:22;;;;;;;12.30;7.00;;;3.10;99.90;;;;;;1867747;75;21087;-72
2021/03/03 01:53:49;;;;;;;10.82;6.70;;;3.10;99.90;;;;;;1871070;75;21518;-73
2021/03/03 01:56:15;;;;;;;13.85;7.53;;;2.90;99.90;;;;;;1874367;74;21549;-71
2021/03/03 01:58:41;;;;;;;16.30;8.30;;;2.90;99.90;;;;;;1869566;74;21510;-71
2021/03/03 02:01:07;;;;;;;18.85;7.83;;;2.90;99.90;;;;;;1871122;74;21069;-72
2021/03/03 02:03:33;;;;;;;13.32;7.17;;;2.90;99.90;;;;;;1869125;74;21066;-71
2021/03/03 02:05:59;;;;;;;16.73;7.70;;;2.80;99.90;;;;;;1879093;75;21156;-72
2021/03/03 02:08:25;;;;;;;17.10;7.70;;;2.80;99.90;;;;;;1872688;75;21078;-72
2021/03/03 02:10:51;;;;;;;15.40;7.45;;;2.80;99.90;;;;;;1877420;75;21094;-72
2021/03/03 02:13:17;;;;;;;24.75;7.90;;;2.80;99.90;;;;;;1870761;75;21068;-72
2021/03/03 02:15:44;;;;;;;12.55;7.70;;;2.80;99.90;;;;;;1861682;74;21085;-72
2021/03/03 02:18:10;;;;;;;13.20;7.22;;;2.80;99.90;;;;;;1873699;74;21489;-72
2021/03/03 02:20:36;;;;;;;14.33;7.53;;;2.80;99.90;;;;;;1873722;74;21082;-71
2021/03/03 02:23:02;;;;;;;13.70;7.85;;;2.80;99.90;;;;;;1864866;76;21072;-71
2021/03/03 02:25:29;;;;;;;19.25;8.00;;;2.80;99.90;;;;;;1866556;75;21069;-71
2021/03/03 02:27:55;;;;;;;21.00;7.97;;;2.80;99.90;;;;;;1874367;75;21099;-71
2021/03/03 02:30:21;;;;;;;16.10;7.95;;;2.80;99.90;;;;;;1874429;75;21545;-71
2021/03/03 02:32:47;;;;;;;11.75;7.47;;;2.90;99.90;;;;;;1875302;74;21645;-71
2021/03/03 02:35:13;;;;;;;13.70;7.10;;;2.80;99.90;;;;;;1871918;74;21502;-72
2021/03/03 02:37:40;;;;;;;23.83;8.15;;;2.80;99.90;;;;;;1868492;74;21055;-71
2021/03/03 02:40:06;;;;;;;14.38;7.85;;;2.80;99.90;;;;;;1875754;74;21054;-73
2021/03/03 02:42:32;;;;;;;19.35;8.18;;;2.80;99.90;;;;;;1881486;74;21519;-72
2021/03/03 02:44:58;;;;;;;11.80;7.15;;;2.80;99.90;;;;;;1864940;75;21493;-71
2021/03/03 02:47:24;;;;;;;18.02;8.38;;;2.80;99.90;;;;;;1878668;75;21474;-72
2021/03/03 02:49:50;;;;;;;15.13;7.90;;;2.70;99.90;;;;;;1881321;74;21180;-72
2021/03/03 02:52:16;;;;;;;13.65;8.23;;;2.70;99.90;;;;;;1879266;74;21066;-71
2021/03/03 02:54:43;;;;;;;20.55;7.20;;;2.70;99.90;;;;;;1878857;74;21051;-72
2021/03/03 02:57:09;;;;;;;19.42;7.50;;;2.60;99.90;;;;;;1869524;74;21054;-72
2021/03/03 02:59:36;;;;;;;11.08;6.92;;;2.70;99.90;;;;;;1867160;75;21090;-72
2021/03/03 03:02:02;;;;;;;11.12;6.70;;;2.70;99.90;;;;;;1882794;74;21560;-72
2021/03/03 03:04:28;;;;;;;19.87;8.73;;;2.70;99.90;;;;;;1873665;74;21497;-72
2021/03/03 03:06:54;;;;;;;15.03;7.47;;;2.70;99.90;;;;;;1879646;74;21493;-72
2021/03/03 03:09:20;;;;;;;18.70;7.97;;;2.60;99.90;;;;;;1880331;74;21071;-72
2021/03/03 03:11:46;;;;;;;13.58;7.30;;;2.60;99.90;;;;;;1870053;74;21151;-71
2021/03/03 03:14:12;;;;;;;16.20;7.70;;;2.60;99.90;;;;;;1874741;74;21082;-72
2021/03/03 03:16:38;;;;;;;21.30;8.33;;;2.60;99.90;;;;;;1861619;75;21495;-71
2021/03/03 03:19:05;;;;;;;16.48;7.47;;;2.60;99.90;;;;;;1866827;76;21467;-72
2021/03/03 03:21:31;;;;;;;15.30;7.42;;;2.60;99.90;;;;;;1876199;74;21542;-71
2021/03/03 03:23:57;;;;;;;14.65;7.35;;;2.60;99.90;;;;;;1871734;73;21081;-71
2021/03/03 03:26:23;;;;;;;20.05;8.05;;;2.50;99.90;;;;;;1877134;75;21075;-71
2021/03/03 03:28:49;;;;;;;16.57;7.78;;;2.40;99.90;;;;;;1876713;74;21210;-72
2021/03/03 03:31:15;;;;;;;18.40;8.25;;;2.50;99.90;;;;;;1874861;74;21181;-71
2021/03/03 03:33:41;;;;;;;11.85;6.75;;;2.50;99.90;;;;;;1874165;74;21128;-71
2021/03/03 03:36:07;;;;;;;12.18;7.35;;;2.50;99.90;;;;;;1877513;75;21132;-72
2021/03/03 03:38:34;;;;;;;16.55;9.00;;;2.60;99.90;;;;;;1876439;74;21062;-72
2021/03/03 03:41:00;;;;;;;12.73;7.05;;;2.60;99.90;;;;;;1877318;74;21082;-72
2021/03/03 03:43:26;;;;;;;16.70;8.40;;;2.60;99.90;;;;;;1866500;75;21137;-72
2021/03/03 03:45:52;;;;;;;13.05;7.03;;;2.60;99.90;;;;;;1871801;75;21059;-72
2021/03/03 03:48:18;;;;;;;12.65;6.72;;;2.60;99.90;;;;;;1879451;75;21082;-72
2021/03/03 03:50:44;;;;;;;19.82;8.88;;;2.70;99.90;;;;;;1872821;74;21167;-72
2021/03/03 03:53:10;;;;;;;17.40;7.85;;;2.70;99.90;;;;;;1876957;74;21077;-72
2021/03/03 03:55:36;;;;;;;14.20;6.85;;;2.50;99.90;;;;;;1874051;74;21474;-72
2021/03/03 03:58:02;;;;;;;14.68;7.42;;;2.60;99.90;;;;;;1871498;76;21507;-72
2021/03/03 04:00:29;;;;;;;12.55;7.45;;;2.60;99.90;;;;;;1870007;74;21451;-73
2021/03/03 04:02:55;;;;;;;16.62;7.85;;;2.50;99.90;;;;;;1874380;75;21078;-72
2021/03/03 04:05:21;;;;;;;22.55;7.65;;;2.50;99.90;;;;;;1865068;76;21073;-72
2021/03/03 04:07:47;;;;;;;24.85;7.65;;;2.50;99.90;;;;;;1862796;75;21086;-72
2021/03/03 04:10:13;;;;;;;15.10;7.53;;;2.40;99.90;;;;;;1875799;74;21074;-72
2021/03/03 04:12:39;;;;;;;11.63;6.87;;;2.40;99.90;;;;;;1877429;74;21055;-72
2021/03/03 04:15:05;;;;;;;15.45;7.90;;;2.40;99.90;;;;;;1882264;74;21079;-72
2021/03/03 04:17:31;;;;;;;18.15;7.67;;;2.30;99.90;;;;;;1876825;74;21098;-71
2021/03/03 04:19:58;;;;;;;13.03;7.10;;;2.30;99.90;;;;;;1876558;75;21156;-72
2021/03/03 04:22:24;;;;;;;9.95;6.97;;;2.30;99.90;;;;;;1872454;74;21498;-72
2021/03/03 04:24:50;;;;;;;17.92;7.25;;;2.20;99.90;;;;;;1878841;75;21567;-72
2021/03/03 04:27:16;;;;;;;10.50;6.78;;;2.30;99.90;;;;;;1879045;74;21498;-72
2021/03/03 04:29:42;;;;;;;16.80;7.60;;;2.30;99.90;;;;;;1873725;74;21188;-73
2021/03/03 04:32:08;;;;;;;16.67;7.15;;;2.20;99.90;;;;;;1882735;74;21047;-72
2021/03/03 04:34:34;;;;;;;11.38;7.40;;;2.20;99.90;;;;;;1870609;74;21144;-71
2021/03/03 04:37:00;;;;;;;14.18;7.75;;;2.30;99.90;;;;;;1880514;74;21070;-71
2021/03/03 04:39:27;;;;;;;15.63;8.08;;;2.40;99.90;;;;;;1853832;75;21148;-72
2021/03/03 04:41:53;;;;;;;21.20;8.35;;;2.40;99.90;;;;;;1871388;75;21517;-72
2021/03/03 04:44:19;;;;;;;12.47;7.08;;;2.40;99.90;;;;;;1869963;75;21153;-73
2021/03/03 04:46:45;;;;;;;12.88;7.65;;;2.40;99.90;;;;;;1883977;74;21128;-73
2021/03/03 04:49:11;;;;;;;19.23;8.68;;;2.30;99.90;;;;;;1873956;74;21152;-72
2021/03/03 04:51:37;;;;;;;14.13;7.37;;;2.30;99.90;;;;;;1879835;74;21144;-71
2021/03/03 04:54:03;;;;;;;16.07;8.45;;;2.30;99.90;;;;;;1873665;74;21081;-72
2021/03/03 04:56:29;;;;;;;14.87;8.35;;;2.30;99.90;;;;;;1877564;75;21078;-73
2021/03/03 04:58:56;;;;;;;13.80;7.72;;;2.20;99.90;;;;;;1877826;74;21051;-73
2021/03/03 05:01:22;;;;;;;15.72;8.40;;;2.30;99.90;;;;;;1873426;76;21620;-73
2021/03/03 05:03:48;;;;;;;13.68;7.33;;;2.20;99.90;;;;;;1875984;74;21576;-73
2021/03/03 05:06:14;;;;;;;22.25;8.18;;;2.20;99.90;;;;;;1876966;73;21501;-72
2021/03/03 05:08:40;;;;;;;13.30;7.12;;;2.20;99.90;;;;;;1872858;74;21069;-71
2021/03/03 05:11:06;;;;;;;16.73;7.17;;;2.20;99.90;;;;;;1868830;74;21156;-73
2021/03/03 05:13:33;;;;;;;17.35;8.05;;;2.20;99.90;;;;;;1874327;74;21147;-71
2021/03/03 05:15:59;;;;;;;17.02;8.45;;;2.20;99.90;;;;;;1870328;75;21043;-71
2021/03/03 05:18:25;;;;;;;18.65;7.58;;;2.30;99.90;;;;;;1875995;74;21074;-71
2021/03/03 05:20:51;;;;;;;24.20;8.28;;;2.20;99.90;;;;;;1879655;75;21147;-71
2021/03/03 05:23:17;;;;;;;21.10;8.68;;;2.20;99.90;;;;;;1862589;76;21486;-72
2021/03/03 05:25:43;;;;;;;15.08;7.92;;;2.20;99.90;;;;;;1870769;74;21486;-70
2021/03/03 05:28:09;;;;;;;16.87;8.40;;;2.20;99.90;;;;;;1870437;75;21487;-70
2021/03/03 05:30:35;;;;;;;16.05;8.13;;;2.20;99.90;;;;;;1870629;76;21439;-71
2021/03/03 05:33:02;;;;;;;15.83;7.20;;;2.20;99.90;;;;;;1874119;76;21187;-71
2021/03/03 05:35:28;;;;;;;15.93;7.62;;;2.20;99.90;;;;;;1869767;75;21140;-71
2021/03/03 05:37:54;;;;;;;15.72;7.45;;;2.10;99.90;;;;;;1871015;75;21086;-70
2021/03/03 05:40:20;;;;;;;23.10;8.55;;;2.10;99.90;;;;;;1879767;75;21075;-70
2021/03/03 05:42:46;;;;;;;12.50;7.45;;;2.10;99.90;;;;;;1872570;75;21082;-70
2021/03/03 05:45:12;;;;;;;13.48;7.58;;;2.10;99.90;;;;;;1877625;74;21150;-71
2021/03/03 05:47:38;;;;;;;14.25;7.05;;;2.10;99.90;;;;;;1874945;74;21055;-72
2021/03/03 05:50:05;;;;;;;13.75;7.12;;;2.10;99.90;;;;;;1875856;74;21628;-69
2021/03/03 05:52:31;;;;;;;18.17;7.90;;;2.10;99.90;;;;;;1872760;74;21524;-70
2021/03/03 05:54:57;;;;;;;11.50;7.35;;;2.10;99.90;;;;;;1873838;75;21576;-70
2021/03/03 05:57:23;;;;;;;14.07;7.85;;;2.10;99.90;;;;;;1863797;75;21071;-69
2021/03/03 05:59:49;;;;;;;14.80;8.70;;;2.10;99.90;;;;;;1870047;74;21125;-69
2021/03/03 06:02:15;;;;;;;13.90;8.18;;;2.10;99.90;;;;;;1866991;75;21143;-69
2021/03/03 06:04:41;;;;;;;20.88;8.73;;;2.10;99.90;;;;;;1864187;76;21148;-69
2021/03/03 06:07:07;;;;;;;12.23;7.72;;;2.10;99.90;;;;;;1880179;74;21078;-68
2021/03/03 06:09:34;;;;;;;12.07;8.03;;;2.10;99.90;;;;;;1873837;74;21139;-69
2021/03/03 06:12:00;;;;;;;16.57;8.28;;;2.20;99.90;;;;;;1871528;75;21074;-68
2021/03/03 06:14:26;;;;;;;10.28;7.00;;;2.20;99.90;;;;;;1873630;74;21047;-69
2021/03/03 06:16:52;;;;;;;13.13;7.45;;;2.20;99.90;;;;;;1869833;76;21113;-68
2021/03/03 06:19:18;;;;;;;16.12;7.58;;;2.20;99.90;;;;;;1875609;75;21070;-69
2021/03/03 06:21:44;;;;;;;17.10;7.50;;;2.20;99.90;;;;;;1867525;74;21148;-68
2021/03/03 06:24:10;;;;;;;14.95;8.08;;;2.10;99.90;;;;;;1875270;74;21078;-69
2021/03/03 06:26:36;;;;;;;11.38;7.42;;;2.10;99.90;;;;;;1870709;75;21073;-69
2021/03/03 06:29:03;;;;;;;23.70;8.58;;;2.10;99.90;;;;;;1870608;74;21153;-69
2021/03/03 06:31:29;;;;;;;14.35;8.25;;;2.10;99.90;;;;;;1870336;74;21058;-69
2021/03/03 06:33:55;;;;;;;15.28;8.68;;;2.10;99.90;;;;;;1870201;74;21150;-69
2021/03/03 06:36:21;;;;;;;13.65;8.38;;;2.10;99.90;;;;;;1874116;74;21164;-70
2021/03/03 06:38:47;;;;;;;14.83;8.63;;;2.20;99.90;;;;;;1879734;74;21082;-69
2021/03/03 06:41:13;;;;;;;33.95;8.00;;;2.20;99.90;;;;;;1866444;76;21164;-70
2021/03/03 06:43:39;;;;;;;16.97;8.50;;;2.30;99.90;;;;;;1859342;76;21533;-69
2021/03/03 06:46:06;;;;;;;16.62;8.43;;;2.30;99.90;;;;;;1875470;74;21189;-70
2021/03/03 06:48:32;;;;;;;35.73;8.03;;;2.40;99.90;;;;;;1875306;74;21070;-68
2021/03/03 06:50:58;;;;;;;24.63;9.23;;;2.50;99.90;;;;;;1875814;75;21047;-69
2021/03/03 06:53:24;;;;;;;17.52;9.38;;;2.50;99.90;;;;;;1881300;74;21066;-70
2021/03/03 06:55:50;;;;;;;20.15;9.78;;;2.50;99.90;;;;;;1872398;74;21073;-71
2021/03/03 06:58:16;;;;;;;18.65;7.97;;;2.70;99.90;;;;;;1877806;75;21144;-71
2021/03/03 07:00:43;;;;;;;16.70;9.10;;;2.80;99.90;;;;;;1876770;75;21082;-70
2021/03/03 07:03:09;;;;;;;16.97;8.53;;;2.80;99.90;;;;;;1861627;74;21070;-71
2021/03/03 07:05:35;;;;;;;18.23;8.63;;;2.90;99.90;;;;;;1864662;74;21136;-69
2021/03/03 07:08:01;;;;;;;16.27;9.30;;;3.10;99.90;;;;;;1873587;74;21042;-69
2021/03/03 07:10:27;;;;;;;24.27;9.38;;;3.00;99.90;;;;;;1875734;74;21121;-69
2021/03/03 07:12:53;;;;;;;16.75;9.03;;;3.00;99.90;;;;;;1864621;76;21140;-69
2021/03/03 07:15:21;;;;;;;18.98;8.83;;;2.90;99.90;;;;;;1880464;74;21089;-69
2021/03/03 07:17:47;;;;;;;20.12;9.90;;;3.00;99.90;;;;;;1873200;74;21147;-68
2021/03/03 07:20:18;;;;;;;14.18;8.55;;;3.10;99.90;;;;;;1872465;74;21077;-68
2021/03/03 07:22:41;;;;;;;24.10;9.80;;;3.20;99.90;;;;;;1873658;74;21103;-69
2021/03/03 07:25:07;;;;;;;18.10;8.75;;;3.40;99.90;;;;;;1877300;75;21055;-69
2021/03/03 07:27:33;;;;;;;19.65;9.43;;;3.30;99.90;;;;;;1874859;74;21140;-68
2021/03/03 07:29:59;;;;;;;27.93;8.95;;;3.30;99.90;;;;;;1873473;74;21137;-68
2021/03/03 07:32:26;;;;;;;18.98;8.88;;;3.20;99.90;;;;;;1871467;74;21144;-68
2021/03/03 07:34:52;;;;;;;17.50;10.18;;;3.40;99.90;;;;;;1865284;75;21074;-68
2021/03/03 07:37:18;;;;;;;16.15;8.30;;;3.40;99.90;;;;;;1868025;74;21058;-69
2021/03/03 07:39:44;;;;;;;26.25;9.05;;;3.40;99.90;;;;;;1871763;74;21140;-69
2021/03/03 07:42:10;;;;;;;23.60;8.58;;;3.40;99.90;;;;;;1878440;74;21087;-68
2021/03/03 07:44:37;;;;;;;18.05;8.43;;;3.50;99.90;;;;;;1872744;74;21074;-69
2021/03/03 07:47:03;;;;;;;21.80;9.38;;;3.50;99.90;;;;;;1871679;75;21195;-69
2021/03/03 07:49:29;;;;;;;19.15;9.50;;;3.60;99.90;;;;;;1875458;75;21073;-68
2021/03/03 07:51:55;;;;;;;17.80;8.90;;;3.60;99.90;;;;;;1867065;74;21148;-69
2021/03/03 07:54:21;;;;;;;22.42;10.23;;;3.80;99.90;;;;;;1876555;73;21161;-69
2021/03/03 07:56:47;;;;;;;19.65;12.28;;;3.80;99.90;;;;;;1879643;75;21144;-68
2021/03/03 07:59:13;;;;;;;25.35;14.10;;;3.80;99.90;;;;;;1876297;74;21065;-71
2021/03/03 08:01:40;;;;;;;34.08;13.65;;;3.90;99.90;;;;;;1873274;74;21074;-68
2021/03/03 08:04:06;;;;;;;34.10;13.62;;;4.00;99.90;;;;;;1864731;74;21636;-70
2021/03/03 08:06:36;;;;;;;25.10;12.82;;;4.00;99.90;;;;;;1872998;74;21078;-69
2021/03/03 08:09:02;;;;;;;24.77;12.30;;;4.10;99.90;;;;;;1859994;75;21584;-68
2021/03/03 08:11:28;;;;;;;25.40;10.93;;;4.10;99.90;;;;;;1874222;75;21552;-69
2021/03/03 08:13:55;;;;;;;23.00;12.40;;;4.10;99.90;;;;;;1872942;74;21082;-68
2021/03/03 08:16:22;;;;;;;25.72;10.70;;;4.30;99.90;;;;;;1866235;74;21156;-69
2021/03/03 08:18:48;;;;;;;19.30;9.88;;;4.30;99.90;;;;;;1878576;74;21237;-68
2021/03/03 08:21:14;;;;;;;23.47;9.55;;;4.40;99.90;;;;;;1873421;74;21155;-67
2021/03/03 08:23:40;;;;;;;19.37;8.80;;;4.50;99.90;;;;;;1866562;74;21089;-68
2021/03/03 08:26:06;;;;;;;20.00;9.83;;;4.60;99.90;;;;;;1866616;74;21051;-68
2021/03/03 08:28:32;;;;;;;18.37;10.05;;;4.60;99.90;;;;;;1875106;74;21094;-68
2021/03/03 08:30:58;;;;;;;15.48;8.75;;;4.60;99.90;;;;;;1872349;76;21566;-68
2021/03/03 08:33:24;;;;;;;22.42;10.20;;;4.70;99.90;;;;;;1873190;75;21502;-68
2021/03/03 08:35:51;;;;;;;20.77;9.48;;;4.70;99.90;;;;;;1873864;75;21505;-68
2021/03/03 08:38:17;;;;;;;17.40;9.10;;;4.80;99.90;;;;;;1871464;75;21443;-68
2021/03/03 08:40:43;;;;;;;14.18;8.08;;;4.80;99.90;;;;;;1874838;74;21151;-68
2021/03/03 08:43:09;;;;;;;23.50;9.43;;;4.80;99.90;;;;;;1872563;74;21144;-68
2021/03/03 08:45:35;;;;;;;13.55;8.03;;;4.90;99.90;;;;;;1870451;76;21085;-69
2021/03/03 08:48:01;;;;;;;11.57;7.42;;;5.10;99.90;;;;;;1873305;75;21078;-68
2021/03/03 08:50:28;;;;;;;17.10;7.78;;;5.10;99.90;;;;;;1884071;74;21093;-69
2021/03/03 08:52:54;;;;;;;15.13;7.60;;;5.20;99.90;;;;;;1875391;74;21102;-69
2021/03/03 08:55:20;;;;;;;12.78;7.85;;;5.30;99.90;;;;;;1868755;75;21241;-69
2021/03/03 08:57:46;;;;;;;16.50;7.83;;;5.20;99.90;;;;;;1878629;75;21489;-69
2021/03/03 09:00:12;;;;;;;13.80;8.50;;;5.50;99.90;;;;;;1871838;74;21489;-69
2021/03/03 09:02:38;;;;;;;18.80;9.05;;;5.50;99.90;;;;;;1868644;74;21185;-68
2021/03/03 09:05:04;;;;;;;16.42;8.40;;;5.60;99.90;;;;;;1872123;74;21077;-68
2021/03/03 09:07:31;;;;;;;23.15;9.33;;;5.70;99.90;;;;;;1876978;74;21101;-68
2021/03/03 09:09:57;;;;;;;20.65;7.72;;;5.80;99.90;;;;;;1880269;74;21147;-68
2021/03/03 09:12:23;;;;;;;13.10;7.97;;;5.90;99.90;;;;;;1870892;74;21324;-68
2021/03/03 09:14:50;;;;;;;18.30;7.75;;;5.90;99.90;;;;;;1877675;74;21257;-68
2021/03/03 09:17:16;;;;;;;16.77;8.33;;;6.00;99.90;;;;;;1871991;74;21154;-69
2021/03/03 09:19:42;;;;;;;19.95;8.75;;;5.90;99.90;;;;;;1885505;74;21156;-68
2021/03/03 09:22:08;;;;;;;18.80;8.43;;;6.10;99.90;;;;;;1875286;74;21090;-68
2021/03/03 09:24:34;;;;;;;15.08;7.87;;;6.10;99.90;;;;;;1872070;75;21486;-68
2021/03/03 09:27:00;;;;;;;18.52;8.35;;;6.10;99.90;;;;;;1873618;74;21456;-69
2021/03/03 09:29:26;;;;;;;19.80;8.48;;;6.10;99.90;;;;;;1878124;74;21489;-69
2021/03/03 09:31:52;;;;;;;24.35;8.73;;;6.20;99.90;;;;;;1872920;74;21498;-69
2021/03/03 09:34:18;;;;;;;23.02;8.20;;;6.30;99.90;;;;;;1848570;76;21151;-69
2021/03/03 09:36:45;;;;;;;20.57;8.00;;;6.40;99.90;;;;;;1866600;74;21079;-69
2021/03/03 09:39:11;;;;;;;14.25;7.37;;;6.30;99.90;;;;;;1862452;74;21047;-69
2021/03/03 09:41:37;;;;;;;20.23;8.78;;;6.40;99.90;;;;;;1869033;75;21140;-69
2021/03/03 09:44:03;;;;;;;14.55;8.15;;;6.50;99.90;;;;;;1880763;76;21175;-69
2021/03/03 09:46:29;;;;;;;14.18;7.80;;;6.60;99.90;;;;;;1871997;75;21089;-69
2021/03/03 09:48:56;;;;;;;19.95;8.10;;;6.70;99.90;;;;;;1869788;75;21094;-69
2021/03/03 09:51:22;;;;;;;15.93;8.05;;;6.80;99.90;;;;;;1871538;74;21086;-68
2021/03/03 09:53:48;;;;;;;16.42;8.93;;;6.90;99.90;;;;;;1871466;74;21500;-69
2021/03/03 09:56:14;;;;;;;24.92;8.85;;;7.00;99.90;;;;;;1877198;74;21627;-69
2021/03/03 09:58:40;;;;;;;24.12;7.85;;;7.10;99.90;;;;;;1872243;76;21534;-69
2021/03/03 10:01:06;;;;;;;17.20;8.63;;;7.20;99.90;;;;;;1864919;76;21489;-68
2021/03/03 10:03:33;;;;;;;23.05;8.25;;;7.20;99.90;;;;;;1874633;75;21064;-68
2021/03/03 10:05:59;;;;;;;19.32;8.15;;;7.20;99.90;;;;;;1871164;75;21066;-69
2021/03/03 10:08:26;;;;;;;17.02;7.75;;;7.50;99.90;;;;;;1887746;74;21078;-70
2021/03/03 10:10:52;;;;;;;14.98;8.25;;;7.60;99.90;;;;;;1863935;76;21171;-69
2021/03/03 10:13:18;;;;;;;22.05;9.75;;;7.70;99.90;;;;;;1876067;74;21081;-70
2021/03/03 10:15:44;;;;;;;15.63;8.15;;;7.80;99.90;;;;;;1871877;74;21562;-69
2021/03/03 10:18:10;;;;;;;14.73;8.28;;;7.90;99.90;;;;;;1878743;74;21501;-68
2021/03/03 10:20:36;;;;;;;22.98;9.00;;;8.10;99.90;;;;;;1877058;74;21517;-69
2021/03/03 10:23:02;;;;;;;19.55;8.40;;;8.10;99.90;;;;;;1877950;74;21853;-69
2021/03/03 10:25:28;;;;;;;18.00;8.23;;;8.20;99.90;;;;;;1873224;74;21141;-69
2021/03/03 10:27:54;;;;;;;18.70;8.23;;;8.10;99.90;;;;;;1871053;75;21038;-69
2021/03/03 10:30:21;;;;;;;18.90;8.28;;;8.30;99.90;;;;;;1880363;75;21160;-69
2021/03/03 10:32:47;;;;;;;18.37;8.70;;;8.40;99.90;;;;;;1864777;76;21078;-69
2021/03/03 10:35:13;;;;;;;14.15;8.15;;;8.40;99.90;;;;;;1866943;74;21089;-69
2021/03/03 10:37:39;;;;;;;17.25;7.85;;;8.40;99.90;;;;;;1875544;75;21339;-69
2021/03/03 10:40:05;;;;;;;16.97;8.15;;;8.40;99.90;;;;;;1877207;74;21051;-70
2021/03/03 10:42:31;;;;;;;14.75;8.18;;;8.80;99.90;;;;;;1863373;75;21143;-70
2021/03/03 10:44:57;;;;;;;21.17;8.48;;;8.70;99.90;;;;;;1868396;74;21156;-69
2021/03/03 10:47:23;;;;;;;22.27;7.65;;;8.70;99.90;;;;;;1870664;74;21140;-70
2021/03/03 10:49:50;;;;;;;14.20;7.90;;;9.00;99.90;;;;;;1879569;74;21078;-68
2021/03/03 10:52:16;;;;;;;18.50;8.10;;;9.00;99.90;;;;;;1883447;75;21084;-70
2021/03/03 10:54:42;;;;;;;22.13;9.10;;;9.20;99.90;;;;;;1879343;74;21144;-70
2021/03/03 10:57:11;;;;;;;12.65;7.15;;;9.30;99.90;;;;;;1873994;74;21155;-69
2021/03/03 10:59:38;;;;;;;18.37;7.58;;;9.50;99.90;;;;;;1873233;74;21105;-70
2021/03/03 11:02:04;;;;;;;14.85;7.70;;;9.50;99.90;;;;;;1878381;75;21544;-68
2021/03/03 11:04:30;;;;;;;16.30;7.83;;;9.50;99.90;;;;;;1875485;75;21085;-69
2021/03/03 11:06:56;;;;;;;26.75;7.95;;;9.30;99.90;;;;;;1875367;74;21148;-69
2021/03/03 11:09:23;;;;;;;21.87;8.10;;;9.40;99.90;;;;;;1871248;74;21143;-68
2021/03/03 11:11:49;;;;;;;18.82;7.85;;;9.70;99.90;;;;;;1862471;75;21080;-68
2021/03/03 11:14:15;;;;;;;16.12;7.37;;;9.70;99.90;;;;;;1875982;74;21458;-68
2021/03/03 11:16:41;;;;;;;23.20;8.10;;;9.60;99.90;;;;;;1864138;75;21506;-69
2021/03/03 11:19:07;;;;;;;15.63;7.28;;;9.70;99.90;;;;;;1871184;74;21544;-68
2021/03/03 11:21:33;;;;;;;18.32;8.55;;;9.80;99.90;;;;;;1869941;74;21510;-69
2021/03/03 11:23:59;;;;;;;20.30;8.20;;;10.00;99.90;;;;;;1856807;75;21274;-69
2021/03/03 11:26:26;;;;;;;17.12;7.75;;;9.90;99.90;;;;;;1876611;74;21068;-69
2021/03/03 11:28:52;;;;;;;17.20;7.95;;;10.10;99.90;;;;;;1867417;74;21085;-68
2021/03/03 11:31:18;;;;;;;18.05;7.72;;;10.30;99.90;;;;;;1872947;74;21124;-68
2021/03/03 11:33:44;;;;;;;36.08;8.68;;;10.50;99.90;;;;;;1873172;74;21078;-69
2021/03/03 11:36:10;;;;;;;15.95;7.62;;;10.70;99.90;;;;;;1879234;74;21078;-69
2021/03/03 11:38:36;;;;;;;20.88;7.87;;;10.80;99.90;;;;;;1873267;75;21144;-70
2021/03/03 11:41:02;;;;;;;19.05;7.83;;;10.70;99.90;;;;;;1875147;74;21090;-69
2021/03/03 11:43:28;;;;;;;25.82;7.90;;;10.80;99.90;;;;;;1872026;74;21043;-68
2021/03/03 11:45:55;;;;;;;17.50;7.03;;;10.80;99.90;;;;;;1878587;74;21082;-68
2021/03/03 11:48:22;;;;;;;15.83;7.40;;;10.80;99.90;;;;;;1880805;74;21156;-71
2021/03/03 11:50:48;;;;;;;14.93;7.53;;;10.80;99.90;;;;;;1865558;75;21502;-69
2021/03/03 11:53:14;;;;;;;17.48;7.30;;;10.90;99.90;;;;;;1872453;74;21079;-69
2021/03/03 11:55:40;;;;;;;21.75;8.18;;;10.90;99.90;;;;;;1872759;74;21089;-68
2021/03/03 11:58:06;;;;;;;16.77;7.10;;;11.10;99.90;;;;;;1876593;74;21074;-68
2021/03/03 12:00:33;;;;;;;19.15;7.83;;;11.10;99.90;;;;;;1877214;75;21055;-69
2021/03/03 12:02:59;;;;;;;16.02;6.72;;;11.10;99.90;;;;;;1870403;74;21143;-68
2021/03/03 12:05:25;;;;;;;18.05;7.45;;;11.50;99.90;;;;;;1878920;74;21152;-69
2021/03/03 12:07:51;;;;;;;17.48;7.25;;;11.60;99.90;;;;;;1870230;74;21163;-69
2021/03/03 12:10:17;;;;;;;16.02;6.67;;;11.60;99.90;;;;;;1873116;74;21155;-69
2021/03/03 12:12:43;;;;;;;16.20;6.83;;;11.80;99.90;;;;;;1872959;74;21078;-69
2021/03/03 12:15:09;;;;;;;16.77;6.87;;;11.90;99.90;;;;;;1877978;75;21083;-67
2021/03/03 12:17:35;;;;;;;15.72;7.15;;;11.70;99.90;;;;;;1867876;73;21176;-67
2021/03/03 12:20:02;;;;;;;18.30;7.00;;;11.50;99.90;;;;;;1867077;75;21266;-66
2021/03/03 12:22:28;;;;;;;15.60;6.83;;;11.50;99.90;;;;;;1872805;74;21121;-68
2021/03/03 12:24:54;;;;;;;16.67;6.83;;;11.70;99.90;;;;;;1865390;74;21152;-68
2021/03/03 12:27:20;;;;;;;14.03;6.25;;;11.70;99.90;;;;;;1875205;74;21074;-68
2021/03/03 12:29:46;;;;;;;17.80;6.65;;;11.90;99.90;;;;;;1875018;75;21148;-68
2021/03/03 12:32:12;;;;;;;17.25;6.97;;;12.10;99.90;;;;;;1873876;74;21533;-69
2021/03/03 12:34:38;;;;;;;16.02;6.97;;;12.40;99.90;;;;;;1883826;74;21571;-68
2021/03/03 12:37:05;;;;;;;15.38;6.67;;;12.20;99.90;;;;;;1876845;74;21635;-69
2021/03/03 12:39:31;;;;;;;17.67;6.58;;;12.30;99.90;;;;;;1875024;74;21515;-69